PST,Max TemperatureF,Mean TemperatureF,Min TemperatureF,Max Dew PointF,MeanDew PointF,Min DewpointF,Max Humidity, Mean Humidity, Min Humidity, Max Sea Level PressureIn, Mean Sea Level PressureIn, Min Sea Level PressureIn, Max VisibilityMiles, Mean VisibilityMiles, Min VisibilityMiles, Max Wind SpeedMPH, Mean Wind SpeedMPH, Max Gust SpeedMPH,PrecipitationIn, CloudCover, Events, WindDirDegrees
2012-11-1,57,55,53,54,53,52,100,92,82,30.01,29.85,29.72,10,10,6,10,7,17,0.01,7,,129
2012-11-2,62,58,53,55,53,48,100,90,59,30.03,29.99,29.96,10,9,5,12,8,18,1.03,7,,136
2012-11-3,57,55,53,57,55,52,100,97,82,30.18,30.03,29.95,10,9,3,13,8,23,0.02,7,,157
2012-11-4,64,58,53,63,58,54,100,96,82,30.28,30.19,30.14,10,8,2,21,7,29,0.29,8,,128
2012-11-5,57,50,44,55,49,45,100,92,67,30.40,30.33,30.19,10,7,1,10,2,,0.00,1,,336
2012-11-6,55,50,46,54,49,46,100,96,82,30.19,30.02,29.91,10,8,1,16,4,22,0.01,6,,198
2012-11-7,51,46,42,46,43,39,100,84,62,30.14,30.08,29.99,10,10,8,10,4,,0.00,4,,142
2012-11-8,51,42,33,39,36,32,100,83,54,29.97,29.87,29.82,10,9,5,14,7,18,0.00,0,,21
2012-11-9,46,39,32,36,32,28,100,83,57,29.93,29.90,29.85,10,9,6,8,2,,0.00,0,,16
2012-11-10,42,37,32,32,28,23,100,77,46,30.23,30.13,30.00,10,10,9,10,2,,0.00,1,,357
2012-11-11,46,39,32,45,36,30,100,85,70,30.25,30.17,30.06,10,10,6,17,8,20,0.20,6,,84
2012-11-12,51,46,42,52,46,43,100,98,87,30.21,30.14,30.06,10,9,2,13,6,20,0.01,8,,95
2012-11-13,50,47,44,50,47,45,100,100,100,30.21,30.18,30.14,10,7,2,12,5,,0.34,8,,80
2012-11-14,48,44,41,48,46,41,100,100,100,30.34,30.29,30.19,10,6,0,7,2,,0.01,8,,13
2012-11-15,46,40,35,45,40,36,100,100,93,30.31,30.11,29.95,10,4,0,12,4,,0.00,5,,344
2012-11-16,51,42,32,46,40,32,100,91,62,29.95,29.85,29.69,10,7,0,14,3,,0.06,7,,103
2012-11-17,60,52,44,48,46,43,100,91,55,29.68,29.57,29.45,10,9,2,17,11,23,0.43,7,,141
2012-11-18,51,48,46,46,43,41,100,84,76,29.73,29.65,29.49,10,10,5,23,14,36,0.05,7,,142
2012-11-19,55,50,44,54,49,45,100,96,76,29.67,29.49,29.34,10,8,2,18,12,32,1.08,8,,139
2012-11-20,51,48,46,48,46,43,100,89,82,29.67,29.60,29.51,10,10,4,21,10,29,0.02,5,,136
2012-11-21,46,44,42,45,43,43,100,98,87,30.30,29.86,29.52,10,9,2,13,7,21,0.19,7,,167
2012-11-22,48,42,37,41,39,37,100,86,66,30.37,30.30,30.15,10,10,8,20,6,25,0.02,2,,89
2012-11-23,51,48,44,48,46,41,100,95,76,30.15,30.08,30.04,10,8,1,18,11,26,0.30,8,,117
2012-11-24,50,44,37,46,42,37,100,97,82,30.28,30.24,30.14,10,6,0,8,1,,0.00,3,,153
2012-11-25,46,40,33,43,38,34,100,98,81,30.37,30.32,30.26,10,10,7,10,4,,0.00,4,,17
2012-11-26,44,37,30,37,34,30,100,92,71,30.27,30.15,30.08,10,10,4,12,5,,0.00,3,,339
2012-11-27,46,40,35,39,35,32,100,86,70,30.10,30.03,29.92,10,10,8,7,4,,0.00,2,,353
2012-11-28,55,44,33,48,42,34,100,93,72,29.91,29.72,29.61,10,10,5,18,4,28,0.01,3,,113
2012-11-29,55,52,48,50,47,45,100,83,67,29.68,29.56,29.44,10,10,5,20,11,31,0.04,6,,113
2012-11-30,55,52,48,52,48,46,100,89,77,29.43,29.40,29.34,10,9,3,17,12,31,0.19,7,,135